createdAt,value
2022-10-06T00:00:14.665Z,100242.50
2022-10-06T00:02:41.336Z,100253.47
2022-10-06T00:05:08.084Z,100241.53
2022-10-06T00:07:36.120Z,100239.13
2022-10-06T00:10:03.613Z,100239.06
2022-10-06T00:12:30.630Z,100224.13
2022-10-06T00:14:57.268Z,100238.59
2022-10-06T00:17:23.931Z,100224.69
2022-10-06T00:19:50.611Z,100242.81
2022-10-06T00:22:17.187Z,100221.47
2022-10-06T00:24:44.014Z,100228.44
2022-10-06T00:27:10.751Z,100233.78
2022-10-06T00:29:37.370Z,100228.63
2022-10-06T00:32:03.938Z,100245.16
2022-10-06T00:34:30.591Z,100233.84
2022-10-06T00:36:57.331Z,100222.16
2022-10-06T00:39:24.600Z,100228.28
2022-10-06T00:41:51.216Z,100226.88
2022-10-06T00:44:17.874Z,100232.28
2022-10-06T00:46:53.694Z,100245.06
2022-10-06T00:49:31.103Z,100241.47
2022-10-06T00:52:02.098Z,100255.69
2022-10-06T00:54:28.956Z,100251.91
2022-10-06T00:56:55.799Z,100251.28
2022-10-06T00:59:22.496Z,100261.13
2022-10-06T01:02:00.714Z,100265.50
2022-10-06T01:04:31.186Z,100258.97
2022-10-06T01:06:59.493Z,100252.75
2022-10-06T01:09:28.265Z,100254.34
2022-10-06T01:12:00.126Z,100270.75
2022-10-06T01:14:29.151Z,100276.00
2022-10-06T01:17:02.278Z,100273.44
2022-10-06T01:19:55.650Z,100279.38
2022-10-06T01:22:31.410Z,100270.25
2022-10-06T01:24:58.632Z,100275.09
2022-10-06T01:27:27.611Z,100280.72
2022-10-06T01:29:55.814Z,100268.84
2022-10-06T01:32:24.760Z,100297.00
2022-10-06T01:34:53.524Z,100280.84
2022-10-06T01:37:21.374Z,100298.34
2022-10-06T01:39:48.082Z,100307.72
2022-10-06T01:42:14.887Z,100303.56
2022-10-06T01:44:41.660Z,100306.16
2022-10-06T01:47:08.745Z,100296.31
2022-10-06T01:49:35.417Z,100317.34
2022-10-06T01:52:03.141Z,100315.84
2022-10-06T01:54:29.821Z,100330.38
2022-10-06T01:56:56.523Z,100322.34
2022-10-06T01:59:24.615Z,100341.25
2022-10-06T02:01:52.237Z,100349.00
2022-10-06T02:04:20.584Z,100357.56
2022-10-06T02:06:47.527Z,100366.31
2022-10-06T02:09:14.162Z,100363.00
2022-10-06T02:11:42.521Z,100359.06
2022-10-06T02:14:09.148Z,100363.56
2022-10-06T02:16:36.308Z,100375.13
2022-10-06T02:19:03.022Z,100379.75
2022-10-06T02:21:29.645Z,100385.25
2022-10-06T02:23:57.137Z,100397.13
2022-10-06T02:26:24.353Z,100388.94
2022-10-06T02:28:51.579Z,100395.56
2022-10-06T02:31:22.613Z,100399.97
2022-10-06T02:33:49.421Z,100408.88
2022-10-06T02:36:18.107Z,100416.59
2022-10-06T02:38:44.849Z,100429.66
2022-10-06T02:41:11.867Z,100466.09
2022-10-06T02:43:39.101Z,100433.19
2022-10-06T02:46:13.746Z,100455.88
2022-10-06T02:48:48.145Z,100446.06
2022-10-06T02:51:17.854Z,100451.47
2022-10-06T02:53:47.443Z,100461.50
2022-10-06T02:56:16.936Z,100471.97
2022-10-06T02:58:44.813Z,100469.72
2022-10-06T03:01:19.071Z,100485.53
2022-10-06T03:03:49.282Z,100481.34
2022-10-06T03:06:23.524Z,100496.50
2022-10-06T03:09:00.657Z,100489.16
2022-10-06T03:11:31.127Z,100504.72
2022-10-06T03:13:58.844Z,100516.91
2022-10-06T03:16:27.540Z,100510.13
2022-10-06T03:18:57.631Z,100511.69
2022-10-06T03:21:27.517Z,100510.81
2022-10-06T03:23:54.923Z,100511.25
2022-10-06T03:26:27.750Z,100521.13
2022-10-06T03:28:55.268Z,100515.31
2022-10-06T03:31:22.696Z,100522.78
2022-10-06T03:33:50.851Z,100528.72
2022-10-06T03:36:23.526Z,100533.00
2022-10-06T03:38:50.643Z,100545.50
2022-10-06T03:41:22.474Z,100544.72
2022-10-06T03:43:50.863Z,100542.09
2022-10-06T03:46:20.859Z,100564.88
2022-10-06T03:48:49.411Z,100559.78
2022-10-06T03:51:23.466Z,100554.22
2022-10-06T03:53:52.001Z,100551.63
2022-10-06T03:56:24.830Z,100544.00
2022-10-06T03:59:00.689Z,100559.88
2022-10-06T04:01:34.941Z,100551.22
2022-10-06T04:04:07.229Z,100538.38
2022-10-06T04:06:36.358Z,100543.28
2022-10-06T04:09:09.270Z,100544.13
2022-10-06T04:11:40.252Z,100557.28
2022-10-06T04:14:10.450Z,100573.44
2022-10-06T04:16:40.404Z,100571.97
2022-10-06T04:19:10.562Z,100573.75
2022-10-06T04:21:41.898Z,100565.94
2022-10-06T04:24:11.444Z,100573.03
2022-10-06T04:26:45.072Z,100573.44
2022-10-06T04:29:15.114Z,100586.19
2022-10-06T04:31:43.879Z,100590.56
2022-10-06T04:34:17.171Z,100578.97
2022-10-06T04:36:45.482Z,100605.13
2022-10-06T04:39:16.058Z,100596.19
2022-10-06T04:41:47.155Z,100602.88
2022-10-06T04:44:19.278Z,100608.28
2022-10-06T04:46:46.968Z,100620.81
2022-10-06T04:49:21.637Z,100620.31
2022-10-06T04:51:51.614Z,100623.94
2022-10-06T04:54:19.338Z,100634.25
2022-10-06T04:56:48.425Z,100636.09
2022-10-06T04:59:17.019Z,100648.09
2022-10-06T05:01:44.973Z,100655.75
2022-10-06T05:04:13.640Z,100655.63
2022-10-06T05:06:42.342Z,100660.13
2022-10-06T05:09:13.396Z,100675.75
2022-10-06T05:11:46.096Z,100668.78
2022-10-06T05:14:15.817Z,100667.41
2022-10-06T05:16:45.689Z,100699.56
2022-10-06T05:19:15.954Z,100685.56
2022-10-06T05:21:42.868Z,100685.38
2022-10-06T05:24:13.181Z,100705.34
2022-10-06T05:26:40.011Z,100711.13
2022-10-06T05:29:10.130Z,100703.41
2022-10-06T05:31:43.047Z,100713.41
2022-10-06T05:34:10.343Z,100717.19
2022-10-06T05:36:37.725Z,100715.84
2022-10-06T05:39:06.162Z,100730.50
2022-10-06T05:41:45.703Z,100740.91
2022-10-06T05:44:13.890Z,100739.94
2022-10-06T05:46:42.482Z,100738.16
2022-10-06T05:49:10.414Z,100745.88
2022-10-06T05:51:49.471Z,100751.38
2022-10-06T05:54:28.869Z,100753.97
2022-10-06T05:56:55.643Z,100749.00
2022-10-06T05:59:23.743Z,100775.84
2022-10-06T06:01:53.140Z,100774.59
2022-10-06T06:04:27.673Z,100771.09
2022-10-06T06:06:56.390Z,100776.63
2022-10-06T06:09:26.137Z,100788.66
2022-10-06T06:11:54.544Z,100792.06
2022-10-06T06:15:06.244Z,100785.78
2022-10-06T06:17:38.482Z,100792.34
2022-10-06T06:20:06.098Z,100810.78
2022-10-06T06:22:32.730Z,100825.78
2022-10-06T06:24:59.420Z,100824.44
2022-10-06T06:27:26.279Z,100820.75
2022-10-06T06:29:53.341Z,100819.59
2022-10-06T06:32:20.061Z,100836.66
2022-10-06T06:34:46.811Z,100837.28
2022-10-06T06:37:15.396Z,100836.56
2022-10-06T06:39:45.555Z,100835.03
2022-10-06T06:42:12.163Z,100847.44
2022-10-06T06:44:39.457Z,100855.53
2022-10-06T06:47:19.868Z,100855.06
2022-10-06T06:49:47.699Z,100865.81
2022-10-06T06:52:14.666Z,100875.94
2022-10-06T06:54:41.899Z,100865.84
2022-10-06T06:57:12.292Z,100876.25
2022-10-06T06:59:39.222Z,100887.16
2022-10-06T07:02:10.189Z,100897.66
2022-10-06T07:04:38.861Z,100900.97
2022-10-06T07:07:08.176Z,100905.28
2022-10-06T07:09:36.809Z,100911.47
2022-10-06T07:12:13.349Z,100922.69
2022-10-06T07:15:04.551Z,100932.34
2022-10-06T07:17:55.703Z,100935.00
2022-10-06T07:20:41.596Z,100951.09
2022-10-06T07:23:34.319Z,100952.06
2022-10-06T07:26:01.554Z,100985.59
2022-10-06T07:28:31.844Z,100968.47
2022-10-06T07:31:01.449Z,100993.66
2022-10-06T07:33:32.406Z,100980.31
2022-10-06T07:36:02.691Z,100999.81
2022-10-06T07:38:30.671Z,100990.38
2022-10-06T07:43:48.206Z,101017.38
2022-10-06T07:46:16.472Z,101012.19
2022-10-06T07:49:01.635Z,101032.41
2022-10-06T07:51:28.536Z,101039.13
2022-10-06T07:53:57.216Z,101044.97
2022-10-06T07:56:53.637Z,101039.41
2022-10-06T07:59:20.684Z,101055.06
2022-10-06T08:01:47.528Z,101052.97
2022-10-06T08:04:14.246Z,101064.13
2022-10-06T08:06:42.002Z,101088.41
2022-10-06T08:09:08.698Z,101081.41
2022-10-06T08:11:35.476Z,101080.13
2022-10-06T08:14:02.363Z,101092.72
2022-10-06T08:16:30.249Z,101078.06
2022-10-06T08:18:59.334Z,101091.97
2022-10-06T08:21:28.904Z,101091.50
2022-10-06T08:23:58.087Z,101109.09
2022-10-06T08:26:26.528Z,101126.72
2022-10-06T08:28:57.494Z,101122.00
2022-10-06T08:31:24.527Z,101148.28
2022-10-06T08:33:56.035Z,101135.31
2022-10-06T08:36:31.027Z,101128.16
2022-10-06T08:38:58.464Z,101147.44
2022-10-06T08:41:27.567Z,101134.09
2022-10-06T08:44:18.057Z,101154.91
2022-10-06T08:47:13.499Z,101161.72
2022-10-06T08:49:44.450Z,101172.06
2022-10-06T08:52:58.916Z,101171.88
2022-10-06T08:55:50.127Z,101177.41
2022-10-06T08:58:54.498Z,101182.28
2022-10-06T09:01:27.036Z,101196.97
2022-10-06T09:03:57.310Z,101204.94
2022-10-06T09:06:42.630Z,101214.63
2022-10-06T09:09:43.176Z,101202.47
2022-10-06T09:12:37.540Z,101204.31
2022-10-06T09:15:28.794Z,101227.78
2022-10-06T09:18:19.150Z,101230.28
2022-10-06T09:20:47.327Z,101224.56
2022-10-06T09:23:17.071Z,101226.22
2022-10-06T09:25:44.852Z,101238.22
2022-10-06T09:28:15.851Z,101235.44
2022-10-06T09:30:43.370Z,101248.56
2022-10-06T09:33:19.618Z,101279.38
2022-10-06T09:36:15.784Z,101251.38
2022-10-06T09:38:45.730Z,101264.44
2022-10-06T09:41:13.410Z,101265.19
2022-10-06T09:43:53.023Z,101258.38
2022-10-06T09:46:31.560Z,101261.66
2022-10-06T09:49:31.608Z,101275.38
2022-10-06T09:51:59.822Z,101272.56
2022-10-06T09:54:28.750Z,101279.47
2022-10-06T09:56:59.601Z,101273.06
2022-10-06T09:59:40.111Z,101282.41
2022-10-06T10:02:31.272Z,101297.53
2022-10-06T10:04:58.359Z,101312.91
2022-10-06T10:07:27.465Z,101300.41
2022-10-06T10:10:10.024Z,101301.47
2022-10-06T10:12:36.641Z,101305.75
2022-10-06T10:15:25.250Z,101302.63
2022-10-06T10:17:58.358Z,101315.88
2022-10-06T10:20:25.025Z,101320.41
2022-10-06T10:22:53.259Z,101339.75
2022-10-06T10:25:44.378Z,101337.88
2022-10-06T10:28:15.653Z,101349.94
2022-10-06T10:31:14.826Z,101335.41
2022-10-06T10:33:53.937Z,101346.50
2022-10-06T10:36:38.035Z,101347.44
2022-10-06T10:39:11.121Z,101341.53
2022-10-06T10:41:52.707Z,101352.16
2022-10-06T10:44:38.912Z,101348.59
2022-10-06T10:47:17.571Z,101355.25
2022-10-06T10:49:51.666Z,101366.78
2022-10-06T10:52:25.816Z,101368.81
2022-10-06T10:55:17.948Z,101377.06
2022-10-06T10:57:46.324Z,101370.06
2022-10-06T11:00:19.465Z,101385.72
2022-10-06T11:02:47.629Z,101384.16
2022-10-06T11:05:38.467Z,101383.00
2022-10-06T11:08:32.578Z,101405.31
2022-10-06T11:11:02.641Z,101398.00
2022-10-06T11:13:40.750Z,101409.53
2022-10-06T11:16:25.728Z,101402.75
2022-10-06T11:19:22.698Z,101401.41
2022-10-06T11:22:05.804Z,101411.38
2022-10-06T11:24:50.745Z,101409.41
2022-10-06T11:28:04.638Z,101411.44
2022-10-06T11:30:38.085Z,101413.97
2022-10-06T11:33:20.574Z,101412.81
2022-10-06T11:35:48.961Z,101415.63
2022-10-06T11:38:27.152Z,101425.47
2022-10-06T11:41:18.708Z,101421.31
2022-10-06T11:44:09.828Z,101422.25
2022-10-06T11:46:44.742Z,101435.63
2022-10-06T11:49:30.204Z,101430.97
2022-10-06T11:52:17.170Z,101436.00
2022-10-06T11:54:43.789Z,101439.03
2022-10-06T11:57:26.253Z,101445.41
2022-10-06T12:00:16.262Z,101442.75
2022-10-06T12:02:45.184Z,101437.84
2022-10-06T12:08:12.743Z,101448.00
2022-10-06T12:10:49.365Z,101446.44
2022-10-06T12:14:44.445Z,101448.28
2022-10-06T12:19:38.037Z,101452.84
2022-10-06T12:22:15.058Z,101456.84
2022-10-06T12:25:07.695Z,101462.88
2022-10-06T12:27:39.778Z,101456.56
2022-10-06T12:30:18.154Z,101466.69
2022-10-06T12:32:55.767Z,101455.66
2022-10-06T12:35:31.728Z,101456.81
2022-10-06T12:38:04.728Z,101462.91
2022-10-06T12:40:51.300Z,101464.72
2022-10-06T12:43:17.981Z,101467.22
2022-10-06T12:45:46.288Z,101468.03
2022-10-06T12:48:41.460Z,101464.56
2022-10-06T12:51:26.474Z,101451.66
2022-10-06T12:54:01.974Z,101470.00
2022-10-06T12:56:34.966Z,101475.59
2022-10-06T12:59:24.943Z,101459.53
2022-10-06T13:01:58.276Z,101464.94
2022-10-06T13:04:44.050Z,101471.97
2022-10-06T13:07:16.381Z,101484.22
2022-10-06T13:09:45.574Z,101481.41
2022-10-06T13:12:27.114Z,101487.75
2022-10-06T13:15:34.551Z,101480.09
2022-10-06T13:18:14.143Z,101484.25
2022-10-06T13:20:49.224Z,101497.34
2022-10-06T13:23:28.027Z,101486.16
2022-10-06T13:25:54.676Z,101491.97
2022-10-06T13:28:25.778Z,101482.13
2022-10-06T13:30:58.408Z,101497.78
2022-10-06T13:33:29.809Z,101491.66
2022-10-06T13:35:58.352Z,101482.38
2022-10-06T13:38:24.982Z,101494.19
2022-10-06T13:41:06.509Z,101508.41
2022-10-06T13:43:39.853Z,101495.47
2022-10-06T13:46:12.736Z,101495.91
2022-10-06T13:49:05.782Z,101491.56
2022-10-06T13:51:33.211Z,101502.84
2022-10-06T13:54:06.609Z,101504.63
2022-10-06T13:56:37.415Z,101542.00
2022-10-06T13:59:28.400Z,101505.06
2022-10-06T14:01:57.341Z,101512.41
2022-10-06T14:04:23.990Z,101515.00
2022-10-06T14:06:52.514Z,101519.72
2022-10-06T14:09:29.555Z,101524.97
2022-10-06T14:12:11.198Z,101541.28
2022-10-06T14:14:38.847Z,101521.88
2022-10-06T14:17:06.857Z,101519.31
2022-10-06T14:19:36.603Z,101541.78
2022-10-06T14:22:05.242Z,101532.56
2022-10-06T14:24:34.322Z,101540.81
2022-10-06T14:27:06.498Z,101539.94
2022-10-06T14:29:34.252Z,101528.97
2022-10-06T14:32:08.950Z,101531.59
2022-10-06T14:34:35.517Z,101542.53
2022-10-06T14:37:02.118Z,101532.25
2022-10-06T14:39:28.718Z,101538.75
2022-10-06T14:41:55.247Z,101540.88
2022-10-06T14:44:22.083Z,101549.56
2022-10-06T14:46:49.487Z,101547.25
2022-10-06T14:49:16.428Z,101546.00
2022-10-06T14:51:44.352Z,101550.13
2022-10-06T14:54:11.756Z,101549.75
2022-10-06T14:56:39.746Z,101551.38
2022-10-06T14:59:08.969Z,101558.13
2022-10-06T15:01:38.442Z,101554.44
2022-10-06T15:04:08.823Z,101558.78
2022-10-06T15:06:54.137Z,101570.50
2022-10-06T15:09:20.789Z,101561.25
2022-10-06T15:11:47.913Z,101573.41
2022-10-06T15:14:14.626Z,101582.06
2022-10-06T15:16:43.705Z,101568.81
2022-10-06T15:19:11.870Z,101573.31
2022-10-06T15:21:42.049Z,101578.06
2022-10-06T15:24:12.390Z,101576.47
2022-10-06T15:26:57.896Z,101581.22
2022-10-06T15:29:24.677Z,101593.56
2022-10-06T15:31:55.107Z,101587.56
2022-10-06T15:34:25.737Z,101590.81
2022-10-06T15:36:55.489Z,101593.09
2022-10-06T15:39:27.848Z,101599.00
2022-10-06T15:41:54.830Z,101594.59
2022-10-06T15:44:21.903Z,101595.75
2022-10-06T15:46:50.709Z,101609.84
2022-10-06T15:49:22.232Z,101597.22
2022-10-06T15:51:51.603Z,101617.59
2022-10-06T15:54:20.110Z,101604.78
2022-10-06T15:56:48.482Z,101604.69
2022-10-06T15:59:16.457Z,101609.91
2022-10-06T16:01:48.581Z,101601.88
2022-10-06T16:04:23.976Z,101599.16
2022-10-06T16:06:55.673Z,101618.34
2022-10-06T16:09:25.248Z,101617.97
2022-10-06T16:11:53.212Z,101625.50
2022-10-06T16:14:19.833Z,101640.03
2022-10-06T16:16:47.609Z,101628.03
2022-10-06T16:19:15.474Z,101626.81
2022-10-06T16:21:43.110Z,101623.47
2022-10-06T16:24:10.337Z,101629.25
2022-10-06T16:26:37.308Z,101643.91
2022-10-06T16:29:04.975Z,101637.75
2022-10-06T16:31:31.990Z,101625.44
2022-10-06T16:33:58.686Z,101646.66
2022-10-06T16:36:28.141Z,101654.75
2022-10-06T16:38:55.014Z,101653.31
2022-10-06T16:41:22.840Z,101657.44
2022-10-06T16:43:51.711Z,101642.44
2022-10-06T16:46:24.517Z,101658.06
2022-10-06T16:48:53.829Z,101654.69
2022-10-06T16:51:23.491Z,101664.53
2022-10-06T16:53:55.214Z,101659.53
2022-10-06T16:56:30.435Z,101669.53
2022-10-06T16:59:04.735Z,101664.25
2022-10-06T17:01:34.527Z,101668.63
2022-10-06T17:04:08.821Z,101678.66
2022-10-06T17:06:46.014Z,101676.28
2022-10-06T17:09:15.374Z,101675.59
2022-10-06T17:11:44.477Z,101679.41
2022-10-06T17:14:12.007Z,101686.09
2022-10-06T17:16:42.080Z,101690.44
2022-10-06T17:19:10.855Z,101697.19
2022-10-06T17:21:46.283Z,101689.94
2022-10-06T17:24:14.761Z,101694.75
2022-10-06T17:26:42.959Z,101698.13
2022-10-06T17:29:27.824Z,101687.47
2022-10-06T17:31:58.566Z,101687.09
2022-10-06T17:34:31.373Z,101685.28
2022-10-06T17:36:59.564Z,101682.84
2022-10-06T17:39:26.110Z,101694.81
2022-10-06T17:41:53.636Z,101675.59
2022-10-06T17:44:23.734Z,101684.31
2022-10-06T17:46:53.850Z,101692.63
2022-10-06T17:49:21.761Z,101691.06
2022-10-06T17:51:49.634Z,101685.13
2022-10-06T17:54:19.776Z,101695.94
2022-10-06T17:56:48.421Z,101702.50
2022-10-06T17:59:28.488Z,101707.50
2022-10-06T18:01:56.772Z,101697.13
2022-10-06T18:04:24.292Z,101690.94
2022-10-06T18:06:53.036Z,101700.06
2022-10-06T18:09:19.950Z,101712.22
2022-10-06T18:11:55.343Z,101700.28
2022-10-06T18:14:24.122Z,101701.38
2022-10-06T18:16:57.443Z,101711.22
2022-10-06T18:19:35.407Z,101704.03
2022-10-06T18:22:06.894Z,101704.88
2022-10-06T18:24:33.514Z,101707.69
2022-10-06T18:27:00.928Z,101714.38
2022-10-06T18:29:33.410Z,101717.34
2022-10-06T18:32:34.819Z,101706.75
2022-10-06T18:37:35.152Z,101702.94
2022-10-06T18:40:06.920Z,101720.38
2022-10-06T18:42:34.339Z,101725.78
2022-10-06T18:45:19.583Z,101727.81
2022-10-06T18:48:04.699Z,101721.84
2022-10-06T18:50:34.964Z,101720.25
2022-10-06T18:53:01.752Z,101719.38
2022-10-06T18:55:29.730Z,101728.00
2022-10-06T18:58:03.028Z,101719.06
2022-10-06T19:00:29.630Z,101731.09
2022-10-06T19:02:56.898Z,101718.38
2022-10-06T19:05:23.961Z,101730.63
2022-10-06T19:07:56.787Z,101728.88
2022-10-06T19:10:23.376Z,101731.28
2022-10-06T19:12:50.295Z,101739.75
2022-10-06T19:15:21.341Z,101742.69
2022-10-06T19:17:49.966Z,101742.56
2022-10-06T19:20:18.320Z,101748.28
2022-10-06T19:22:45.334Z,101745.59
2022-10-06T19:25:13.063Z,101757.91
2022-10-06T19:27:39.758Z,101767.41
2022-10-06T19:30:06.821Z,101766.38
2022-10-06T19:32:33.601Z,101760.13
2022-10-06T19:35:00.454Z,101760.72
2022-10-06T19:37:35.416Z,101771.81
2022-10-06T19:40:02.074Z,101773.75
2022-10-06T19:42:47.537Z,101774.16
2022-10-06T19:45:15.979Z,101793.47
2022-10-06T19:47:42.932Z,101778.16
2022-10-06T19:50:12.554Z,101783.22
2022-10-06T19:52:41.146Z,101781.13
2022-10-06T19:55:07.880Z,101788.16
2022-10-06T19:57:34.981Z,101773.00
2022-10-06T20:00:01.759Z,101768.72
2022-10-06T20:02:28.943Z,101793.22
2022-10-06T20:04:56.794Z,101787.66
2022-10-06T20:07:27.682Z,101772.84
2022-10-06T20:09:55.047Z,101776.28
2022-10-06T20:12:24.876Z,101784.72
2022-10-06T20:14:53.440Z,101778.47
2022-10-06T20:17:20.829Z,101778.84
2022-10-06T20:19:47.550Z,101780.69
2022-10-06T20:22:14.169Z,101766.84
2022-10-06T20:24:41.189Z,101788.50
2022-10-06T20:27:07.805Z,101770.56
2022-10-06T20:29:34.680Z,101770.28
2022-10-06T20:32:01.366Z,101772.94
2022-10-06T20:34:32.583Z,101768.22
2022-10-06T20:37:02.229Z,101759.06
2022-10-06T20:39:52.305Z,101764.88
2022-10-06T20:42:20.121Z,101762.28
2022-10-06T20:44:47.174Z,101761.34
2022-10-06T20:47:16.376Z,101758.50
2022-10-06T20:49:42.986Z,101756.56
2022-10-06T20:52:10.170Z,101766.03
2022-10-06T20:54:37.433Z,101760.75
2022-10-06T20:57:05.950Z,101762.56
2022-10-06T20:59:36.309Z,101754.03
2022-10-06T21:02:05.066Z,101757.31
2022-10-06T21:04:32.122Z,101753.38
2022-10-06T21:06:59.269Z,101770.63
2022-10-06T21:09:28.392Z,101755.50
2022-10-06T21:11:58.421Z,101759.66
2022-10-06T21:14:25.212Z,101758.72
2022-10-06T21:16:54.876Z,101755.66
2022-10-06T21:19:21.835Z,101748.97
2022-10-06T21:21:52.376Z,101757.59
2022-10-06T21:24:20.566Z,101743.28
2022-10-06T21:26:47.616Z,101761.72
2022-10-06T21:29:17.010Z,101756.19
2022-10-06T21:31:49.090Z,101761.72
2022-10-06T21:34:15.922Z,101756.25
2022-10-06T21:36:45.387Z,101761.44
2022-10-06T21:39:20.311Z,101746.75
2022-10-06T21:41:48.975Z,101739.78
2022-10-06T21:44:17.791Z,101732.88
2022-10-06T21:46:52.771Z,101739.06
2022-10-06T21:49:27.707Z,101737.78
2022-10-06T21:51:56.275Z,101742.59
2022-10-06T21:54:25.864Z,101738.63
2022-10-06T21:56:53.298Z,101738.53
2022-10-06T21:59:20.489Z,101741.63
2022-10-06T22:01:50.237Z,101749.91
2022-10-06T22:04:17.368Z,101736.16
2022-10-06T22:06:45.122Z,101743.47
2022-10-06T22:09:19.779Z,101742.09
2022-10-06T22:11:51.090Z,101741.47
2022-10-06T22:14:22.236Z,101746.28
2022-10-06T22:16:52.042Z,101757.97
2022-10-06T22:19:21.692Z,101746.84
2022-10-06T22:21:48.578Z,101748.34
2022-10-06T22:24:20.155Z,101740.69
2022-10-06T22:26:47.334Z,101750.34
2022-10-06T22:29:17.226Z,101748.22
2022-10-06T22:31:45.880Z,101754.22
2022-10-06T22:34:15.768Z,101751.19
2022-10-06T22:36:42.594Z,101751.13
2022-10-06T22:39:09.324Z,101747.59
2022-10-06T22:41:36.196Z,101741.63
2022-10-06T22:44:02.836Z,101748.53
2022-10-06T22:46:32.366Z,101740.06
2022-10-06T22:48:59.416Z,101734.09
2022-10-06T22:51:26.084Z,101736.69
2022-10-06T22:53:58.850Z,101740.88
2022-10-06T22:56:31.724Z,101734.50
2022-10-06T22:58:59.882Z,101723.88
2022-10-06T23:01:28.018Z,101735.38
2022-10-06T23:03:55.650Z,101728.44
2022-10-06T23:06:22.594Z,101733.09
2022-10-06T23:08:49.270Z,101722.97
2022-10-06T23:11:18.817Z,101723.50
2022-10-06T23:13:45.654Z,101729.78
2022-10-06T23:16:14.747Z,101730.47
2022-10-06T23:18:42.615Z,101721.34
2022-10-06T23:21:22.016Z,101727.03
2022-10-06T23:23:50.878Z,101718.34
2022-10-06T23:26:18.972Z,101722.50
2022-10-06T23:28:49.943Z,101727.84
2022-10-06T23:31:16.591Z,101732.63
2022-10-06T23:33:43.234Z,101727.56
2022-10-06T23:36:12.187Z,101723.81
2022-10-06T23:38:39.292Z,101718.00
2022-10-06T23:41:06.939Z,101742.56
2022-10-06T23:43:34.027Z,101725.97
2022-10-06T23:46:01.028Z,101724.81
2022-10-06T23:48:27.802Z,101720.50
2022-10-06T23:51:10.263Z,101727.94
2022-10-06T23:53:37.023Z,101719.47
2022-10-06T23:56:04.551Z,101735.69
2022-10-06T23:58:31.446Z,101734.56
